createdAt,value
2014-11-26T14:33:44.936Z,762
2014-11-26T14:34:02.092Z,762
2014-11-26T14:34:20.530Z,762
2014-11-26T14:34:39.014Z,762
2014-11-26T14:34:56.657Z,762
2014-11-26T14:35:14.672Z,762
2014-11-26T14:35:33.094Z,762
2014-11-26T14:35:51.519Z,762
2014-11-26T14:36:09.925Z,762
2014-11-26T14:36:28.331Z,762
2014-11-26T14:36:46.833Z,762
2014-11-26T14:37:05.177Z,762
2014-11-26T14:37:23.708Z,762
2014-11-26T14:37:41.974Z,762
2014-11-26T14:37:59.743Z,762
2014-11-26T14:38:17.649Z,762
2014-11-26T14:38:35.368Z,762
2014-11-26T14:38:53.727Z,762
2014-11-26T14:39:12.229Z,762
2014-11-26T14:39:30.229Z,762
2014-11-26T14:39:48.588Z,762
2014-11-26T14:40:07.185Z,762
2014-11-26T14:40:25.232Z,762
2014-11-26T14:40:42.795Z,762
2014-11-26T14:41:01.343Z,762
2014-11-26T14:41:19.218Z,762
2014-11-26T14:41:37.578Z,762
2014-11-26T14:41:55.890Z,761
2014-11-26T14:42:13.642Z,762
2014-11-26T14:42:32.127Z,762
2014-11-26T14:42:49.970Z,761
2014-11-26T14:43:07.939Z,761
2014-11-26T14:43:26.317Z,760
2014-11-26T14:43:44.723Z,759
2014-11-26T14:44:02.505Z,757
2014-11-26T14:44:20.289Z,756
2014-11-26T14:44:39.008Z,755
2014-11-26T14:44:56.133Z,753
2014-11-26T14:45:14.603Z,752
2014-11-26T14:45:33.088Z,751
2014-11-26T14:45:50.869Z,750
2014-11-26T14:46:08.603Z,749
2014-11-26T14:46:26.966Z,748
2014-11-26T14:46:44.731Z,747
2014-11-26T14:47:03.185Z,746
2014-11-26T14:47:21.765Z,744
2014-11-26T14:47:40.187Z,743
2014-11-26T14:47:58.577Z,742
2014-11-26T14:48:16.421Z,740
2014-11-26T14:48:35.001Z,739
2014-11-26T14:48:52.767Z,738
2014-11-26T14:49:09.923Z,737
2014-11-26T14:49:28.360Z,736
2014-11-26T14:49:46.254Z,735
2014-11-26T14:50:05.645Z,733
2014-11-26T14:50:26.801Z,731
2014-11-26T14:50:44.022Z,730
2014-11-26T14:51:04.569Z,728
2014-11-26T14:51:24.756Z,727
2014-11-26T14:51:46.118Z,725
2014-11-26T14:52:04.025Z,723
2014-11-26T14:52:23.103Z,721
2014-11-26T14:52:41.917Z,720
2014-11-26T14:53:02.011Z,718
2014-11-26T14:53:20.839Z,717
2014-11-26T14:53:43.014Z,715
2014-11-26T15:00:33.903Z,658
2014-11-26T15:01:20.716Z,650
2014-11-26T15:02:03.579Z,641
2014-11-26T15:02:44.190Z,632
2014-11-26T15:03:15.237Z,627
2014-11-26T15:03:53.083Z,619
2014-11-26T15:04:19.739Z,613
2014-11-26T15:04:47.476Z,607
2014-11-26T15:05:17.991Z,601
2014-11-26T15:05:39.429Z,594
2014-11-26T15:06:00.869Z,589
2014-11-26T15:06:22.775Z,583
2014-11-26T15:06:46.916Z,577
2014-11-26T15:07:12.732Z,571
2014-11-26T15:13:15.525Z,475
2014-11-26T15:15:02.639Z,449
2014-11-26T15:15:37.782Z,440
2014-11-26T15:16:43.832Z,422
2014-11-26T15:17:19.660Z,413
2014-11-26T15:18:56.148Z,388
2014-11-26T15:19:14.883Z,383
2014-11-26T15:19:32.260Z,379
2014-11-26T15:19:51.025Z,374
2014-11-26T15:20:09.119Z,370
2014-11-26T15:20:27.419Z,366
2014-11-26T15:20:46.028Z,362
2014-11-26T15:21:04.263Z,357
2014-11-26T15:21:23.077Z,352
2014-11-26T15:21:41.280Z,347
2014-11-26T15:22:00.077Z,342
2014-11-26T15:22:18.499Z,336
2014-11-26T15:22:36.377Z,331
2014-11-26T15:22:53.799Z,327
2014-11-26T15:23:11.080Z,322
2014-11-26T15:23:28.783Z,317
2014-11-26T15:23:45.973Z,313
2014-11-26T15:24:05.020Z,307
2014-11-26T15:24:25.895Z,303
2014-11-26T15:24:44.351Z,297
2014-11-26T15:25:02.851Z,293
2014-11-26T15:25:21.491Z,288
2014-11-26T15:25:40.212Z,284
2014-11-26T15:25:58.962Z,280
2014-11-26T15:26:17.150Z,277
2014-11-26T15:26:35.493Z,273
2014-11-26T15:26:52.995Z,270
2014-11-26T15:27:11.511Z,267
2014-11-26T15:27:28.886Z,264
2014-11-26T15:27:46.230Z,261
2014-11-26T15:28:04.342Z,258
2014-11-26T15:28:21.670Z,255
2014-11-26T15:28:38.983Z,254
2014-11-26T15:28:58.251Z,251
2014-11-26T15:29:16.923Z,249
2014-11-26T15:29:34.892Z,247
2014-11-26T15:29:53.300Z,244
2014-11-26T15:30:12.066Z,243
2014-11-26T15:30:30.191Z,240
2014-11-26T15:30:48.785Z,238
2014-11-26T15:31:06.694Z,235
2014-11-26T15:31:24.506Z,233
2014-11-26T15:31:42.459Z,230
2014-11-26T15:32:00.414Z,228
2014-11-26T15:32:17.679Z,226
2014-11-26T15:32:36.273Z,223
2014-11-26T15:32:54.945Z,222
2014-11-26T15:33:13.120Z,220
2014-11-26T15:33:31.776Z,218
2014-11-26T15:33:49.323Z,216
2014-11-26T15:34:07.512Z,214
2014-11-26T15:34:26.403Z,212
2014-11-26T15:34:44.559Z,209
2014-11-26T15:35:02.403Z,207
2014-11-26T15:35:21.281Z,204
2014-11-26T15:35:41.547Z,202
2014-11-26T15:35:59.890Z,200
2014-11-26T15:36:17.909Z,197
2014-11-26T15:36:36.878Z,194
2014-11-26T15:36:55.034Z,192
2014-11-26T15:37:12.831Z,190
2014-11-26T15:37:30.864Z,187
2014-11-26T15:37:49.161Z,184
2014-11-26T15:38:08.380Z,182
2014-11-26T15:38:26.991Z,179
2014-11-26T15:38:44.663Z,176
2014-11-26T15:39:03.210Z,174
2014-11-26T15:39:22.616Z,171
2014-11-26T15:39:39.697Z,169
2014-11-26T15:39:57.822Z,167
2014-11-26T15:40:16.869Z,165
2014-11-26T15:40:35.184Z,163
2014-11-26T15:41:24.355Z,160
2014-11-26T15:41:42.749Z,158
2014-11-26T15:42:00.124Z,157
2014-11-26T15:42:18.093Z,156
2014-11-26T15:42:36.187Z,156
2014-11-26T15:42:55.079Z,154
2014-11-26T15:43:13.298Z,153
2014-11-26T15:43:34.110Z,152
2014-11-26T15:43:55.019Z,150
2014-11-26T15:44:13.534Z,149
2014-11-26T15:44:32.534Z,148
2014-11-26T15:44:51.208Z,146
2014-11-26T17:33:23.725Z,99
2014-11-26T17:33:41.865Z,99
2014-11-26T17:33:59.740Z,98
2014-11-26T17:34:17.712Z,98
2014-11-26T17:34:36.447Z,99
2014-11-26T17:35:31.386Z,98
2014-11-26T17:35:52.245Z,99
2014-11-26T17:36:12.167Z,98
2014-11-26T17:36:32.576Z,98
2014-11-26T17:36:52.607Z,98
2014-11-26T17:37:11.247Z,98
2014-11-26T17:37:35.469Z,98
